sensor_id;sensor_type;location;lat;lon;timestamp;P1;durP1;ratioP1;P2;durP2;ratioP2
54555;SDS011;57291;37.520;15.106;2022-12-07T00:01:20;33.03;;;13.65;;
54555;SDS011;57291;37.520;15.106;2022-12-07T00:03:51;26.40;;;13.55;;
54555;SDS011;57291;37.520;15.106;2022-12-07T00:06:20;32.22;;;13.40;;
54555;SDS011;57291;37.520;15.106;2022-12-07T00:08:48;35.65;;;14.50;;
54555;SDS011;57291;37.520;15.106;2022-12-07T00:11:16;32.55;;;12.77;;
54555;SDS011;57291;37.520;15.106;2022-12-07T00:13:45;31.27;;;11.55;;
54555;SDS011;57291;37.520;15.106;2022-12-07T00:16:17;37.03;;;13.10;;
54555;SDS011;57291;37.520;15.106;2022-12-07T00:18:46;28.40;;;11.45;;
54555;SDS011;57291;37.520;15.106;2022-12-07T00:21:15;25.15;;;10.98;;
54555;SDS011;57291;37.520;15.106;2022-12-07T00:23:45;27.90;;;11.23;;
54555;SDS011;57291;37.520;15.106;2022-12-07T00:26:18;29.30;;;10.90;;
54555;SDS011;57291;37.520;15.106;2022-12-07T00:28:47;29.08;;;11.13;;
54555;SDS011;57291;37.520;15.106;2022-12-07T00:31:16;32.00;;;10.93;;
54555;SDS011;57291;37.520;15.106;2022-12-07T00:33:44;23.02;;;10.23;;
54555;SDS011;57291;37.520;15.106;2022-12-07T00:36:13;25.02;;;10.82;;
54555;SDS011;57291;37.520;15.106;2022-12-07T00:38:52;26.38;;;10.48;;
54555;SDS011;57291;37.520;15.106;2022-12-07T00:41:20;26.20;;;11.02;;
54555;SDS011;57291;37.520;15.106;2022-12-07T00:43:50;22.63;;;11.13;;
54555;SDS011;57291;37.520;15.106;2022-12-07T00:46:18;29.05;;;11.85;;
54555;SDS011;57291;37.520;15.106;2022-12-07T00:48:46;34.40;;;12.90;;
54555;SDS011;57291;37.520;15.106;2022-12-07T00:51:15;37.53;;;13.18;;
54555;SDS011;57291;37.520;15.106;2022-12-07T00:53:43;38.42;;;13.38;;
54555;SDS011;57291;37.520;15.106;2022-12-07T00:56:19;31.27;;;13.07;;
54555;SDS011;57291;37.520;15.106;2022-12-07T00:58:51;33.20;;;13.10;;
54555;SDS011;57291;37.520;15.106;2022-12-07T01:01:24;31.73;;;13.70;;
54555;SDS011;57291;37.520;15.106;2022-12-07T01:03:53;25.90;;;11.95;;
54555;SDS011;57291;37.520;15.106;2022-12-07T01:06:22;32.17;;;12.15;;
54555;SDS011;57291;37.520;15.106;2022-12-07T01:08:50;32.58;;;11.82;;
54555;SDS011;57291;37.520;15.106;2022-12-07T01:11:19;37.53;;;12.25;;
54555;SDS011;57291;37.520;15.106;2022-12-07T01:13:51;32.97;;;13.40;;
54555;SDS011;57291;37.520;15.106;2022-12-07T01:16:21;29.58;;;11.98;;
54555;SDS011;57291;37.520;15.106;2022-12-07T01:18:52;23.38;;;11.75;;
54555;SDS011;57291;37.520;15.106;2022-12-07T01:21:23;25.85;;;11.52;;
54555;SDS011;57291;37.520;15.106;2022-12-07T01:23:52;24.90;;;10.95;;
54555;SDS011;57291;37.520;15.106;2022-12-07T01:26:21;26.95;;;10.70;;
54555;SDS011;57291;37.520;15.106;2022-12-07T01:28:50;28.58;;;9.82;;
54555;SDS011;57291;37.520;15.106;2022-12-07T01:31:19;27.40;;;10.70;;
54555;SDS011;57291;37.520;15.106;2022-12-07T01:33:48;25.30;;;10.95;;
54555;SDS011;57291;37.520;15.106;2022-12-07T01:36:19;24.90;;;9.27;;
54555;SDS011;57291;37.520;15.106;2022-12-07T01:38:50;23.55;;;11.05;;
54555;SDS011;57291;37.520;15.106;2022-12-07T01:41:20;23.73;;;10.18;;
54555;SDS011;57291;37.520;15.106;2022-12-07T01:46:39;22.08;;;9.55;;
54555;SDS011;57291;37.520;15.106;2022-12-07T01:49:09;23.92;;;9.27;;
54555;SDS011;57291;37.520;15.106;2022-12-07T01:51:41;28.05;;;11.07;;
54555;SDS011;57291;37.520;15.106;2022-12-07T01:54:10;23.42;;;10.48;;
54555;SDS011;57291;37.520;15.106;2022-12-07T01:56:40;28.65;;;9.02;;
54555;SDS011;57291;37.520;15.106;2022-12-07T01:59:12;20.92;;;8.52;;
54555;SDS011;57291;37.520;15.106;2022-12-07T02:01:40;21.77;;;8.43;;
54555;SDS011;57291;37.520;15.106;2022-12-07T02:04:08;24.95;;;7.90;;
54555;SDS011;57291;37.520;15.106;2022-12-07T02:06:36;21.98;;;8.82;;
54555;SDS011;57291;37.520;15.106;2022-12-07T02:09:04;23.75;;;8.35;;
54555;SDS011;57291;37.520;15.106;2022-12-07T02:11:31;24.77;;;8.85;;
54555;SDS011;57291;37.520;15.106;2022-12-07T02:13:59;27.45;;;9.23;;
54555;SDS011;57291;37.520;15.106;2022-12-07T02:30:58;25.58;;;9.43;;
54555;SDS011;57291;37.520;15.106;2022-12-07T02:33:33;24.25;;;8.85;;
54555;SDS011;57291;37.520;15.106;2022-12-07T02:36:09;30.85;;;10.10;;
54555;SDS011;57291;37.520;15.106;2022-12-07T02:41:36;28.67;;;10.10;;
54555;SDS011;57291;37.520;15.106;2022-12-07T02:44:11;29.80;;;10.45;;
54555;SDS011;57291;37.520;15.106;2022-12-07T02:46:43;28.80;;;9.80;;
54555;SDS011;57291;37.520;15.106;2022-12-07T02:49:14;29.30;;;9.65;;
54555;SDS011;57291;37.520;15.106;2022-12-07T02:51:42;26.80;;;9.20;;
54555;SDS011;57291;37.520;15.106;2022-12-07T02:54:14;22.42;;;8.98;;
54555;SDS011;57291;37.520;15.106;2022-12-07T02:59:25;19.23;;;8.43;;
54555;SDS011;57291;37.520;15.106;2022-12-07T03:13:54;23.23;;;7.70;;
54555;SDS011;57291;37.520;15.106;2022-12-07T03:16:35;21.38;;;7.93;;
54555;SDS011;57291;37.520;15.106;2022-12-07T03:19:15;20.75;;;7.30;;
54555;SDS011;57291;37.520;15.106;2022-12-07T03:21:56;18.63;;;7.03;;
54555;SDS011;57291;37.520;15.106;2022-12-07T03:24:31;26.23;;;7.65;;
54555;SDS011;57291;37.520;15.106;2022-12-07T03:27:04;19.73;;;7.00;;
54555;SDS011;57291;37.520;15.106;2022-12-07T03:29:37;21.98;;;7.40;;
54555;SDS011;57291;37.520;15.106;2022-12-07T03:32:19;21.02;;;7.38;;
54555;SDS011;57291;37.520;15.106;2022-12-07T03:35:00;16.17;;;6.80;;
54555;SDS011;57291;37.520;15.106;2022-12-07T03:37:31;16.80;;;6.10;;
54555;SDS011;57291;37.520;15.106;2022-12-07T03:42:33;18.75;;;6.18;;
54555;SDS011;57291;37.520;15.106;2022-12-07T03:45:01;14.80;;;6.78;;
54555;SDS011;57291;37.520;15.106;2022-12-07T03:50:15;18.95;;;6.72;;
54555;SDS011;57291;37.520;15.106;2022-12-07T03:52:56;24.38;;;7.18;;
54555;SDS011;57291;37.520;15.106;2022-12-07T03:55:31;13.82;;;6.80;;
54555;SDS011;57291;37.520;15.106;2022-12-07T03:58:03;21.58;;;7.60;;
54555;SDS011;57291;37.520;15.106;2022-12-07T04:00:33;18.17;;;6.97;;
54555;SDS011;57291;37.520;15.106;2022-12-07T04:03:01;16.70;;;6.70;;
54555;SDS011;57291;37.520;15.106;2022-12-07T04:05:28;17.30;;;7.10;;
54555;SDS011;57291;37.520;15.106;2022-12-07T04:07:55;24.23;;;6.93;;
54555;SDS011;57291;37.520;15.106;2022-12-07T04:10:23;16.60;;;7.18;;
54555;SDS011;57291;37.520;15.106;2022-12-07T04:12:50;29.73;;;6.43;;
54555;SDS011;57291;37.520;15.106;2022-12-07T04:15:17;19.67;;;6.38;;
54555;SDS011;57291;37.520;15.106;2022-12-07T04:17:44;19.63;;;6.40;;
54555;SDS011;57291;37.520;15.106;2022-12-07T04:20:12;14.95;;;5.72;;
54555;SDS011;57291;37.520;15.106;2022-12-07T04:22:39;22.38;;;6.50;;
54555;SDS011;57291;37.520;15.106;2022-12-07T04:25:06;21.05;;;6.25;;
54555;SDS011;57291;37.520;15.106;2022-12-07T04:27:34;12.65;;;5.22;;
54555;SDS011;57291;37.520;15.106;2022-12-07T04:30:01;20.70;;;6.05;;
54555;SDS011;57291;37.520;15.106;2022-12-07T04:32:29;18.55;;;6.63;;
54555;SDS011;57291;37.520;15.106;2022-12-07T04:34:56;18.27;;;5.63;;
54555;SDS011;57291;37.520;15.106;2022-12-07T04:37:23;19.48;;;5.40;;
54555;SDS011;57291;37.520;15.106;2022-12-07T04:39:50;19.50;;;6.88;;
54555;SDS011;57291;37.520;15.106;2022-12-07T04:42:17;31.35;;;7.43;;
54555;SDS011;57291;37.520;15.106;2022-12-07T04:44:44;18.45;;;6.43;;
54555;SDS011;57291;37.520;15.106;2022-12-07T04:47:12;24.05;;;7.65;;
54555;SDS011;57291;37.520;15.106;2022-12-07T04:49:39;22.13;;;7.85;;
54555;SDS011;57291;37.520;15.106;2022-12-07T04:52:06;24.13;;;7.22;;
54555;SDS011;57291;37.520;15.106;2022-12-07T04:54:33;25.52;;;7.55;;
54555;SDS011;57291;37.520;15.106;2022-12-07T04:57:00;17.33;;;6.10;;
54555;SDS011;57291;37.520;15.106;2022-12-07T04:59:27;24.23;;;7.15;;
54555;SDS011;57291;37.520;15.106;2022-12-07T05:01:54;16.38;;;5.00;;
54555;SDS011;57291;37.520;15.106;2022-12-07T05:04:21;18.10;;;6.65;;
54555;SDS011;57291;37.520;15.106;2022-12-07T05:06:49;24.08;;;8.48;;
54555;SDS011;57291;37.520;15.106;2022-12-07T05:09:16;24.77;;;9.73;;
54555;SDS011;57291;37.520;15.106;2022-12-07T05:11:43;34.60;;;11.13;;
54555;SDS011;57291;37.520;15.106;2022-12-07T05:14:17;28.42;;;9.73;;
54555;SDS011;57291;37.520;15.106;2022-12-07T05:16:47;19.85;;;8.00;;
54555;SDS011;57291;37.520;15.106;2022-12-07T05:19:16;23.63;;;7.60;;
54555;SDS011;57291;37.520;15.106;2022-12-07T05:21:45;22.52;;;7.50;;
54555;SDS011;57291;37.520;15.106;2022-12-07T05:24:13;15.88;;;8.02;;
54555;SDS011;57291;37.520;15.106;2022-12-07T05:26:41;22.77;;;8.73;;
54555;SDS011;57291;37.520;15.106;2022-12-07T05:29:10;19.50;;;7.75;;
54555;SDS011;57291;37.520;15.106;2022-12-07T05:31:39;24.05;;;7.65;;
54555;SDS011;57291;37.520;15.106;2022-12-07T05:34:07;23.05;;;7.72;;
54555;SDS011;57291;37.520;15.106;2022-12-07T05:36:34;20.67;;;7.03;;
54555;SDS011;57291;37.520;15.106;2022-12-07T05:39:02;25.58;;;7.22;;
54555;SDS011;57291;37.520;15.106;2022-12-07T05:41:29;20.10;;;7.80;;
54555;SDS011;57291;37.520;15.106;2022-12-07T05:44:14;24.17;;;8.15;;
54555;SDS011;57291;37.520;15.106;2022-12-07T05:46:41;23.17;;;7.22;;
54555;SDS011;57291;37.520;15.106;2022-12-07T05:49:09;20.55;;;7.68;;
54555;SDS011;57291;37.520;15.106;2022-12-07T05:51:36;18.13;;;6.47;;
54555;SDS011;57291;37.520;15.106;2022-12-07T05:54:03;22.63;;;6.72;;
54555;SDS011;57291;37.520;15.106;2022-12-07T05:56:30;16.58;;;7.32;;
54555;SDS011;57291;37.520;15.106;2022-12-07T05:58:57;15.25;;;6.63;;
54555;SDS011;57291;37.520;15.106;2022-12-07T06:01:43;15.40;;;6.65;;
54555;SDS011;57291;37.520;15.106;2022-12-07T06:04:10;15.98;;;7.28;;
54555;SDS011;57291;37.520;15.106;2022-12-07T06:06:37;18.67;;;7.68;;
54555;SDS011;57291;37.520;15.106;2022-12-07T06:09:05;24.70;;;7.22;;
54555;SDS011;57291;37.520;15.106;2022-12-07T06:11:32;19.90;;;7.28;;
54555;SDS011;57291;37.520;15.106;2022-12-07T06:14:18;19.70;;;8.13;;
54555;SDS011;57291;37.520;15.106;2022-12-07T06:16:45;24.48;;;10.70;;
54555;SDS011;57291;37.520;15.106;2022-12-07T06:19:13;28.27;;;10.90;;
54555;SDS011;57291;37.520;15.106;2022-12-07T06:21:40;23.25;;;9.25;;
54555;SDS011;57291;37.520;15.106;2022-12-07T06:24:11;20.27;;;8.50;;
54555;SDS011;57291;37.520;15.106;2022-12-07T06:26:40;27.88;;;9.80;;
54555;SDS011;57291;37.520;15.106;2022-12-07T06:29:07;34.00;;;12.43;;
54555;SDS011;57291;37.520;15.106;2022-12-07T06:31:35;30.80;;;10.77;;
54555;SDS011;57291;37.520;15.106;2022-12-07T06:34:03;25.15;;;11.93;;
54555;SDS011;57291;37.520;15.106;2022-12-07T06:36:33;28.17;;;10.57;;
54555;SDS011;57291;37.520;15.106;2022-12-07T06:39:00;32.05;;;11.43;;
54555;SDS011;57291;37.520;15.106;2022-12-07T06:41:29;26.73;;;10.27;;
54555;SDS011;57291;37.520;15.106;2022-12-07T06:43:56;21.55;;;10.77;;
54555;SDS011;57291;37.520;15.106;2022-12-07T06:46:23;20.95;;;9.95;;
54555;SDS011;57291;37.520;15.106;2022-12-07T06:48:51;21.75;;;9.52;;
54555;SDS011;57291;37.520;15.106;2022-12-07T06:51:19;26.42;;;10.55;;
54555;SDS011;57291;37.520;15.106;2022-12-07T06:53:46;24.40;;;9.70;;
54555;SDS011;57291;37.520;15.106;2022-12-07T06:56:13;28.35;;;10.50;;
54555;SDS011;57291;37.520;15.106;2022-12-07T06:58:41;30.48;;;9.98;;
54555;SDS011;57291;37.520;15.106;2022-12-07T07:01:09;30.70;;;10.68;;
54555;SDS011;57291;37.520;15.106;2022-12-07T07:03:37;27.30;;;11.32;;
54555;SDS011;57291;37.520;15.106;2022-12-07T07:06:06;26.35;;;10.57;;
54555;SDS011;57291;37.520;15.106;2022-12-07T07:08:34;29.48;;;10.65;;
54555;SDS011;57291;37.520;15.106;2022-12-07T07:11:03;28.38;;;11.55;;
54555;SDS011;57291;37.520;15.106;2022-12-07T07:13:30;27.42;;;10.55;;
54555;SDS011;57291;37.520;15.106;2022-12-07T07:15:57;29.88;;;10.85;;
54555;SDS011;57291;37.520;15.106;2022-12-07T07:18:25;27.65;;;9.90;;
54555;SDS011;57291;37.520;15.106;2022-12-07T07:20:53;26.02;;;8.45;;
54555;SDS011;57291;37.520;15.106;2022-12-07T07:23:20;25.27;;;9.80;;
54555;SDS011;57291;37.520;15.106;2022-12-07T07:25:48;25.10;;;9.57;;
54555;SDS011;57291;37.520;15.106;2022-12-07T07:28:15;26.27;;;9.80;;
54555;SDS011;57291;37.520;15.106;2022-12-07T07:30:43;25.00;;;9.52;;
54555;SDS011;57291;37.520;15.106;2022-12-07T07:33:11;28.60;;;9.93;;
54555;SDS011;57291;37.520;15.106;2022-12-07T07:35:38;30.48;;;10.98;;
54555;SDS011;57291;37.520;15.106;2022-12-07T07:38:06;25.80;;;9.45;;
54555;SDS011;57291;37.520;15.106;2022-12-07T07:40:34;24.73;;;9.00;;
54555;SDS011;57291;37.520;15.106;2022-12-07T07:43:01;26.60;;;9.40;;
54555;SDS011;57291;37.520;15.106;2022-12-07T07:45:28;24.73;;;8.55;;
54555;SDS011;57291;37.520;15.106;2022-12-07T07:47:55;23.55;;;8.07;;
54555;SDS011;57291;37.520;15.106;2022-12-07T07:50:22;27.23;;;9.35;;
54555;SDS011;57291;37.520;15.106;2022-12-07T07:52:50;29.92;;;9.65;;
54555;SDS011;57291;37.520;15.106;2022-12-07T07:55:18;24.83;;;9.80;;
54555;SDS011;57291;37.520;15.106;2022-12-07T07:57:45;30.23;;;11.40;;
54555;SDS011;57291;37.520;15.106;2022-12-07T08:00:20;126.40;;;20.95;;
54555;SDS011;57291;37.520;15.106;2022-12-07T08:02:47;31.83;;;12.38;;
54555;SDS011;57291;37.520;15.106;2022-12-07T08:05:14;26.60;;;9.75;;
54555;SDS011;57291;37.520;15.106;2022-12-07T08:07:42;35.65;;;11.38;;
54555;SDS011;57291;37.520;15.106;2022-12-07T08:10:11;22.88;;;9.07;;
54555;SDS011;57291;37.520;15.106;2022-12-07T08:12:40;36.60;;;10.73;;
54555;SDS011;57291;37.520;15.106;2022-12-07T08:15:27;18.48;;;7.80;;
54555;SDS011;57291;37.520;15.106;2022-12-07T08:17:56;26.63;;;8.07;;
54555;SDS011;57291;37.520;15.106;2022-12-07T08:20:23;26.48;;;8.20;;
54555;SDS011;57291;37.520;15.106;2022-12-07T08:22:50;22.67;;;7.13;;
54555;SDS011;57291;37.520;15.106;2022-12-07T08:25:17;19.10;;;6.05;;
54555;SDS011;57291;37.520;15.106;2022-12-07T08:27:45;25.08;;;6.38;;
54555;SDS011;57291;37.520;15.106;2022-12-07T08:30:18;28.52;;;7.20;;
54555;SDS011;57291;37.520;15.106;2022-12-07T08:32:46;19.08;;;6.18;;
54555;SDS011;57291;37.520;15.106;2022-12-07T08:35:14;23.45;;;7.90;;
54555;SDS011;57291;37.520;15.106;2022-12-07T08:37:41;26.48;;;6.38;;
54555;SDS011;57291;37.520;15.106;2022-12-07T08:40:09;26.27;;;7.78;;
54555;SDS011;57291;37.520;15.106;2022-12-07T08:42:42;32.97;;;7.85;;
54555;SDS011;57291;37.520;15.106;2022-12-07T08:45:11;24.75;;;7.57;;
54555;SDS011;57291;37.520;15.106;2022-12-07T08:47:48;28.17;;;8.65;;
54555;SDS011;57291;37.520;15.106;2022-12-07T08:50:19;35.90;;;9.85;;
54555;SDS011;57291;37.520;15.106;2022-12-07T08:52:51;22.23;;;9.32;;
54555;SDS011;57291;37.520;15.106;2022-12-07T08:55:20;22.75;;;9.05;;
54555;SDS011;57291;37.520;15.106;2022-12-07T08:57:48;25.10;;;9.48;;
54555;SDS011;57291;37.520;15.106;2022-12-07T09:00:15;24.60;;;10.15;;
54555;SDS011;57291;37.520;15.106;2022-12-07T09:02:43;27.80;;;10.15;;
54555;SDS011;57291;37.520;15.106;2022-12-07T09:05:13;27.35;;;9.90;;
54555;SDS011;57291;37.520;15.106;2022-12-07T09:07:43;25.48;;;8.93;;
54555;SDS011;57291;37.520;15.106;2022-12-07T09:10:14;27.23;;;9.80;;
54555;SDS011;57291;37.520;15.106;2022-12-07T09:12:41;28.42;;;9.18;;
54555;SDS011;57291;37.520;15.106;2022-12-07T09:15:08;29.27;;;9.57;;
54555;SDS011;57291;37.520;15.106;2022-12-07T09:17:35;26.83;;;8.98;;
54555;SDS011;57291;37.520;15.106;2022-12-07T09:20:04;26.80;;;9.02;;
54555;SDS011;57291;37.520;15.106;2022-12-07T09:22:32;19.55;;;7.80;;
54555;SDS011;57291;37.520;15.106;2022-12-07T09:25:00;24.95;;;8.30;;
54555;SDS011;57291;37.520;15.106;2022-12-07T09:27:28;24.45;;;7.20;;
54555;SDS011;57291;37.520;15.106;2022-12-07T09:29:55;25.92;;;8.35;;
54555;SDS011;57291;37.520;15.106;2022-12-07T09:32:22;25.33;;;8.57;;
54555;SDS011;57291;37.520;15.106;2022-12-07T09:34:50;28.65;;;9.02;;
54555;SDS011;57291;37.520;15.106;2022-12-07T09:37:17;26.27;;;8.75;;
54555;SDS011;57291;37.520;15.106;2022-12-07T09:39:44;26.10;;;7.80;;
54555;SDS011;57291;37.520;15.106;2022-12-07T09:42:35;24.33;;;8.48;;
54555;SDS011;57291;37.520;15.106;2022-12-07T09:45:07;38.88;;;10.43;;
54555;SDS011;57291;37.520;15.106;2022-12-07T09:47:40;30.95;;;8.75;;
54555;SDS011;57291;37.520;15.106;2022-12-07T09:50:16;29.15;;;8.30;;
54555;SDS011;57291;37.520;15.106;2022-12-07T09:52:47;20.73;;;8.13;;
54555;SDS011;57291;37.520;15.106;2022-12-07T09:55:17;26.70;;;8.65;;
54555;SDS011;57291;37.520;15.106;2022-12-07T09:57:53;36.45;;;9.00;;
54555;SDS011;57291;37.520;15.106;2022-12-07T10:00:22;36.50;;;8.55;;
54555;SDS011;57291;37.520;15.106;2022-12-07T10:02:58;19.15;;;8.65;;
54555;SDS011;57291;37.520;15.106;2022-12-07T10:05:34;28.10;;;8.75;;
54555;SDS011;57291;37.520;15.106;2022-12-07T10:08:04;29.90;;;9.25;;
54555;SDS011;57291;37.520;15.106;2022-12-07T10:10:33;29.67;;;8.80;;
54555;SDS011;57291;37.520;15.106;2022-12-07T10:13:14;31.75;;;9.27;;
54555;SDS011;57291;37.520;15.106;2022-12-07T10:15:53;30.67;;;8.90;;
54555;SDS011;57291;37.520;15.106;2022-12-07T10:18:38;32.08;;;9.50;;
54555;SDS011;57291;37.520;15.106;2022-12-07T10:21:11;34.95;;;9.35;;
54555;SDS011;57291;37.520;15.106;2022-12-07T10:23:41;31.67;;;8.85;;
54555;SDS011;57291;37.520;15.106;2022-12-07T10:26:28;28.55;;;8.82;;
54555;SDS011;57291;37.520;15.106;2022-12-07T10:28:56;26.10;;;8.63;;
54555;SDS011;57291;37.520;15.106;2022-12-07T10:31:26;24.00;;;8.77;;
54555;SDS011;57291;37.520;15.106;2022-12-07T10:33:59;22.48;;;7.55;;
54555;SDS011;57291;37.520;15.106;2022-12-07T10:36:36;31.10;;;8.77;;
54555;SDS011;57291;37.520;15.106;2022-12-07T10:39:12;28.58;;;8.05;;
54555;SDS011;57291;37.520;15.106;2022-12-07T10:42:03;19.85;;;6.88;;
54555;SDS011;57291;37.520;15.106;2022-12-07T10:44:31;27.75;;;7.40;;
54555;SDS011;57291;37.520;15.106;2022-12-07T10:47:18;25.40;;;7.47;;
54555;SDS011;57291;37.520;15.106;2022-12-07T11:13:52;16.52;;;6.57;;
54555;SDS011;57291;37.520;15.106;2022-12-07T11:16:38;24.23;;;6.88;;
54555;SDS011;57291;37.520;15.106;2022-12-07T11:28:21;30.95;;;9.00;;
54555;SDS011;57291;37.520;15.106;2022-12-07T11:38:49;23.27;;;8.43;;
54555;SDS011;57291;37.520;15.106;2022-12-07T11:41:21;26.58;;;8.98;;
54555;SDS011;57291;37.520;15.106;2022-12-07T11:43:55;26.17;;;9.77;;
54555;SDS011;57291;37.520;15.106;2022-12-07T11:54:19;42.25;;;11.90;;
54555;SDS011;57291;37.520;15.106;2022-12-07T11:56:51;27.52;;;10.35;;
54555;SDS011;57291;37.520;15.106;2022-12-07T11:59:23;25.02;;;9.73;;
54555;SDS011;57291;37.520;15.106;2022-12-07T12:01:58;23.85;;;9.05;;
54555;SDS011;57291;37.520;15.106;2022-12-07T12:07:33;17.50;;;6.50;;
54555;SDS011;57291;37.520;15.106;2022-12-07T12:10:24;26.98;;;7.60;;
54555;SDS011;57291;37.520;15.106;2022-12-07T12:13:15;23.88;;;6.85;;
54555;SDS011;57291;37.520;15.106;2022-12-07T12:22:01;18.27;;;6.68;;
54555;SDS011;57291;37.520;15.106;2022-12-07T12:24:48;26.98;;;6.60;;
54555;SDS011;57291;37.520;15.106;2022-12-07T12:27:30;25.98;;;7.30;;
54555;SDS011;57291;37.520;15.106;2022-12-07T12:30:04;30.08;;;7.25;;
54555;SDS011;57291;37.520;15.106;2022-12-07T12:40:55;23.10;;;7.45;;
54555;SDS011;57291;37.520;15.106;2022-12-07T12:43:42;27.20;;;6.35;;
54555;SDS011;57291;37.520;15.106;2022-12-07T12:54:35;26.60;;;6.47;;
54555;SDS011;57291;37.520;15.106;2022-12-07T13:20:58;22.88;;;7.00;;
54555;SDS011;57291;37.520;15.106;2022-12-07T13:28:50;24.52;;;7.70;;
54555;SDS011;57291;37.520;15.106;2022-12-07T13:31:43;26.25;;;8.73;;
54555;SDS011;57291;37.520;15.106;2022-12-07T13:37:21;32.50;;;8.30;;
54555;SDS011;57291;37.520;15.106;2022-12-07T13:40:20;24.77;;;7.70;;
54555;SDS011;57291;37.520;15.106;2022-12-07T13:42:56;24.52;;;6.65;;
54555;SDS011;57291;37.520;15.106;2022-12-07T13:48:30;20.45;;;7.55;;
54555;SDS011;57291;37.520;15.106;2022-12-07T13:51:00;23.98;;;7.38;;
54555;SDS011;57291;37.520;15.106;2022-12-07T13:53:28;20.15;;;6.60;;
54555;SDS011;57291;37.520;15.106;2022-12-07T13:56:00;22.80;;;6.97;;
54555;SDS011;57291;37.520;15.106;2022-12-07T13:58:29;26.90;;;7.75;;
54555;SDS011;57291;37.520;15.106;2022-12-07T14:00:59;27.48;;;6.97;;
54555;SDS011;57291;37.520;15.106;2022-12-07T14:03:28;28.33;;;7.07;;
54555;SDS011;57291;37.520;15.106;2022-12-07T14:08:41;28.35;;;7.45;;
54555;SDS011;57291;37.520;15.106;2022-12-07T14:11:12;17.85;;;6.60;;
54555;SDS011;57291;37.520;15.106;2022-12-07T14:14:05;22.08;;;6.72;;
54555;SDS011;57291;37.520;15.106;2022-12-07T14:16:33;29.20;;;7.30;;
54555;SDS011;57291;37.520;15.106;2022-12-07T14:19:03;19.92;;;6.95;;
54555;SDS011;57291;37.520;15.106;2022-12-07T14:21:33;21.77;;;7.72;;
54555;SDS011;57291;37.520;15.106;2022-12-07T14:24:17;21.85;;;7.40;;
54555;SDS011;57291;37.520;15.106;2022-12-07T14:26:47;33.65;;;7.78;;
54555;SDS011;57291;37.520;15.106;2022-12-07T14:31:52;30.55;;;7.45;;
54555;SDS011;57291;37.520;15.106;2022-12-07T14:34:20;27.48;;;7.32;;
54555;SDS011;57291;37.520;15.106;2022-12-07T14:36:48;27.50;;;7.65;;
54555;SDS011;57291;37.520;15.106;2022-12-07T14:39:16;26.75;;;8.15;;
54555;SDS011;57291;37.520;15.106;2022-12-07T14:41:43;25.25;;;7.32;;
54555;SDS011;57291;37.520;15.106;2022-12-07T14:44:22;24.83;;;7.30;;
54555;SDS011;57291;37.520;15.106;2022-12-07T14:46:55;27.85;;;7.50;;
54555;SDS011;57291;37.520;15.106;2022-12-07T14:49:42;32.13;;;7.97;;
54555;SDS011;57291;37.520;15.106;2022-12-07T14:52:13;20.33;;;6.78;;
54555;SDS011;57291;37.520;15.106;2022-12-07T14:55:04;19.90;;;7.03;;
54555;SDS011;57291;37.520;15.106;2022-12-07T14:57:39;27.00;;;7.68;;
54555;SDS011;57291;37.520;15.106;2022-12-07T15:00:06;25.48;;;7.30;;
54555;SDS011;57291;37.520;15.106;2022-12-07T15:02:33;22.80;;;6.97;;
54555;SDS011;57291;37.520;15.106;2022-12-07T15:05:00;26.25;;;6.95;;
54555;SDS011;57291;37.520;15.106;2022-12-07T15:07:28;27.50;;;7.05;;
54555;SDS011;57291;37.520;15.106;2022-12-07T15:09:55;18.98;;;7.20;;
54555;SDS011;57291;37.520;15.106;2022-12-07T15:12:22;24.13;;;7.38;;
54555;SDS011;57291;37.520;15.106;2022-12-07T15:14:51;26.02;;;7.13;;
54555;SDS011;57291;37.520;15.106;2022-12-07T15:17:18;24.38;;;6.88;;
54555;SDS011;57291;37.520;15.106;2022-12-07T15:19:57;21.20;;;7.07;;
54555;SDS011;57291;37.520;15.106;2022-12-07T15:22:24;20.50;;;7.15;;
54555;SDS011;57291;37.520;15.106;2022-12-07T15:24:52;21.80;;;8.05;;
54555;SDS011;57291;37.520;15.106;2022-12-07T15:27:19;21.13;;;7.07;;
54555;SDS011;57291;37.520;15.106;2022-12-07T15:29:46;26.63;;;7.50;;
54555;SDS011;57291;37.520;15.106;2022-12-07T15:32:13;29.67;;;9.18;;
54555;SDS011;57291;37.520;15.106;2022-12-07T15:34:40;17.17;;;7.03;;
54555;SDS011;57291;37.520;15.106;2022-12-07T15:37:10;21.55;;;6.20;;
54555;SDS011;57291;37.520;15.106;2022-12-07T15:39:37;20.33;;;6.40;;
54555;SDS011;57291;37.520;15.106;2022-12-07T15:42:04;20.75;;;5.50;;
54555;SDS011;57291;37.520;15.106;2022-12-07T15:44:31;26.00;;;6.13;;
54555;SDS011;57291;37.520;15.106;2022-12-07T15:47:17;36.17;;;7.00;;
54555;SDS011;57291;37.520;15.106;2022-12-07T15:49:44;23.83;;;6.13;;
54555;SDS011;57291;37.520;15.106;2022-12-07T15:52:12;21.02;;;5.75;;
54555;SDS011;57291;37.520;15.106;2022-12-07T15:54:39;21.95;;;6.40;;
54555;SDS011;57291;37.520;15.106;2022-12-07T15:57:06;24.70;;;6.20;;
54555;SDS011;57291;37.520;15.106;2022-12-07T15:59:33;29.38;;;6.40;;
54555;SDS011;57291;37.520;15.106;2022-12-07T16:02:03;24.13;;;5.28;;
54555;SDS011;57291;37.520;15.106;2022-12-07T16:04:30;21.15;;;6.28;;
54555;SDS011;57291;37.520;15.106;2022-12-07T16:06:57;20.23;;;6.22;;
54555;SDS011;57291;37.520;15.106;2022-12-07T16:09:24;32.17;;;8.23;;
54555;SDS011;57291;37.520;15.106;2022-12-07T16:11:52;26.55;;;7.95;;
54555;SDS011;57291;37.520;15.106;2022-12-07T16:14:19;27.50;;;7.75;;
54555;SDS011;57291;37.520;15.106;2022-12-07T16:16:47;26.88;;;8.07;;
54555;SDS011;57291;37.520;15.106;2022-12-07T16:19:15;19.15;;;7.10;;
54555;SDS011;57291;37.520;15.106;2022-12-07T16:21:42;20.50;;;6.88;;
54555;SDS011;57291;37.520;15.106;2022-12-07T16:24:09;22.95;;;6.93;;
54555;SDS011;57291;37.520;15.106;2022-12-07T16:26:36;26.40;;;7.25;;
54555;SDS011;57291;37.520;15.106;2022-12-07T16:29:03;27.13;;;7.18;;
54555;SDS011;57291;37.520;15.106;2022-12-07T16:31:31;19.38;;;7.18;;
54555;SDS011;57291;37.520;15.106;2022-12-07T16:33:58;29.15;;;8.32;;
54555;SDS011;57291;37.520;15.106;2022-12-07T16:36:26;24.95;;;8.90;;
54555;SDS011;57291;37.520;15.106;2022-12-07T16:39:14;27.65;;;9.50;;
54555;SDS011;57291;37.520;15.106;2022-12-07T16:41:41;30.35;;;9.60;;
54555;SDS011;57291;37.520;15.106;2022-12-07T16:44:09;45.63;;;19.27;;
54555;SDS011;57291;37.520;15.106;2022-12-07T16:46:39;34.47;;;17.33;;
54555;SDS011;57291;37.520;15.106;2022-12-07T16:49:10;40.05;;;16.60;;
54555;SDS011;57291;37.520;15.106;2022-12-07T16:51:39;38.40;;;17.48;;
54555;SDS011;57291;37.520;15.106;2022-12-07T16:54:08;43.90;;;18.02;;
54555;SDS011;57291;37.520;15.106;2022-12-07T16:56:36;43.33;;;18.73;;
54555;SDS011;57291;37.520;15.106;2022-12-07T16:59:03;92.45;;;38.30;;
54555;SDS011;57291;37.520;15.106;2022-12-07T17:01:30;41.35;;;17.13;;
54555;SDS011;57291;37.520;15.106;2022-12-07T17:03:58;37.50;;;15.98;;
54555;SDS011;57291;37.520;15.106;2022-12-07T17:06:26;45.22;;;15.35;;
54555;SDS011;57291;37.520;15.106;2022-12-07T17:08:54;44.53;;;13.88;;
54555;SDS011;57291;37.520;15.106;2022-12-07T17:11:23;37.58;;;13.32;;
54555;SDS011;57291;37.520;15.106;2022-12-07T17:13:55;30.13;;;10.93;;